Time,TemperatureF,DewpointF,PressureIn,WindDirection,WindDirectionDegrees,WindSpeedMPH,WindSpeedGustMPH,Humidity,HourlyPrecipIn,Conditions,Clouds,dailyrainin,SoftwareType,DateUTC
2013-03-08 00:00:00,30.8,30.0,29.99,ENE,75,40.0,42.0,97,0.00,,,0.00,Wunderground v.1.15,2013-03-08 05:00:00,
2013-03-08 00:01:00,30.8,29.8,29.98,ENE,78,44.0,44.0,96,0.00,,,0.00,Wunderground v.1.15,2013-03-08 05:01:00,
2013-03-08 00:03:00,30.7,29.7,29.99,ENE,75,42.0,44.0,96,0.00,,,0.00,Wunderground v.1.15,2013-03-08 05:03:00,
2013-03-08 00:08:00,30.7,30.0,29.99,ENE,74,46.0,46.0,97,0.00,,,0.00,Wunderground v.1.15,2013-03-08 05:08:00,
2013-03-08 00:13:00,30.6,29.9,29.98,ENE,70,43.0,44.0,97,0.00,,,0.00,Wunderground v.1.15,2013-03-08 05:13:00,
2013-03-08 00:19:00,30.6,29.9,29.99,ENE,64,34.0,40.0,97,0.00,,,0.00,Wunderground v.1.15,2013-03-08 05:19:00,
2013-03-08 00:24:00,30.3,29.6,29.98,ENE,77,37.0,45.0,97,0.00,,,0.00,Wunderground v.1.15,2013-03-08 05:24:00,
2013-03-08 00:29:00,30.3,29.6,29.98,East,81,42.0,42.0,97,0.00,,,0.00,Wunderground v.1.15,2013-03-08 05:29:00,
2013-03-08 00:34:00,30.4,29.7,29.99,ENE,75,34.0,42.0,97,0.00,,,0.00,Wunderground v.1.15,2013-03-08 05:34:00,
2013-03-08 00:39:00,30.4,29.7,29.98,ENE,78,48.0,48.0,97,0.00,,,0.00,Wunderground v.1.15,2013-03-08 05:39:00,
2013-03-08 00:45:00,30.3,29.6,29.98,ENE,70,35.0,48.0,97,0.00,,,0.00,Wunderground v.1.15,2013-03-08 05:45:00,
2013-03-08 00:50:00,30.2,29.5,29.98,ENE,65,46.0,46.0,97,0.00,,,0.00,Wunderground v.1.15,2013-03-08 05:50:00,
2013-03-08 00:55:00,30.3,29.6,29.98,ENE,76,41.0,46.0,97,0.00,,,0.00,Wunderground v.1.15,2013-03-08 05:55:00,
2013-03-08 01:00:00,30.4,29.7,29.97,ENE,77,43.0,43.0,97,0.00,,,0.00,Wunderground v.1.15,2013-03-08 06:00:00,
2013-03-08 01:05:00,30.2,29.5,29.97,ENE,65,37.0,45.0,97,0.00,,,0.00,Wunderground v.1.15,2013-03-08 06:05:00,
2013-03-08 01:10:00,30.1,29.4,29.97,ENE,77,44.0,44.0,97,0.00,,,0.00,Wunderground v.1.15,2013-03-08 06:10:00,
2013-03-08 01:15:00,30.2,29.5,29.97,ENE,72,41.0,46.0,97,0.00,,,0.00,Wunderground v.1.15,2013-03-08 06:15:00,
2013-03-08 01:20:00,30.4,29.7,29.97,ENE,72,35.0,41.0,97,0.00,,,0.00,Wunderground v.1.15,2013-03-08 06:20:00,
2013-03-08 01:25:00,30.4,29.7,29.96,ENE,76,42.0,43.0,97,0.00,,,0.00,Wunderground v.1.15,2013-03-08 06:25:00,
2013-03-08 01:30:00,30.4,29.7,29.97,NE,49,31.0,40.0,97,0.00,,,0.00,Wunderground v.1.15,2013-03-08 06:30:00,
2013-03-08 01:35:00,30.2,29.5,29.96,ENE,73,45.0,46.0,97,0.00,,,0.00,Wunderground v.1.15,2013-03-08 06:35:00,
2013-03-08 01:41:00,30.1,29.4,29.96,ENE,77,44.0,49.0,97,0.00,,,0.00,Wunderground v.1.15,2013-03-08 06:41:00,
2013-03-08 01:46:00,30.1,29.4,29.95,ENE,68,44.0,49.0,97,0.00,,,0.00,Wunderground v.1.15,2013-03-08 06:46:00,
2013-03-08 01:51:00,30.2,29.5,29.95,ENE,77,34.0,44.0,97,0.00,,,0.00,Wunderground v.1.15,2013-03-08 06:51:00,
2013-03-08 01:56:00,30.1,29.4,29.95,ENE,58,45.0,49.0,97,0.00,,,0.00,Wunderground v.1.15,2013-03-08 06:56:00,
2013-03-08 02:01:00,30.1,29.4,29.96,ENE,74,41.0,45.0,97,0.00,,,0.00,Wunderground v.1.15,2013-03-08 07:01:00,
2013-03-08 02:06:00,30.3,29.6,29.95,East,81,33.0,50.0,97,0.00,,,0.00,Wunderground v.1.15,2013-03-08 07:06:00,
2013-03-08 02:11:00,30.2,29.5,29.96,ENE,76,41.0,47.0,97,0.00,,,0.00,Wunderground v.1.15,2013-03-08 07:11:00,
2013-03-08 02:16:00,30.1,29.4,29.94,ENE,69,47.0,51.0,97,0.00,,,0.00,Wunderground v.1.15,2013-03-08 07:16:00,
2013-03-08 02:21:00,30.0,29.3,29.96,East,79,46.0,48.0,97,0.00,,,0.00,Wunderground v.1.15,2013-03-08 07:21:00,
2013-03-08 02:26:00,30.1,29.4,29.95,ENE,74,45.0,50.0,97,0.00,,,0.00,Wunderground v.1.15,2013-03-08 07:26:00,
2013-03-08 02:31:00,30.2,29.5,29.96,ENE,72,47.0,49.0,97,0.00,,,0.00,Wunderground v.1.15,2013-03-08 07:31:00,
2013-03-08 02:36:00,29.9,29.2,29.95,ENE,78,37.0,50.0,97,0.00,,,0.00,Wunderground v.1.15,2013-03-08 07:36:00,
2013-03-08 02:41:00,30.1,29.4,29.95,ENE,72,40.0,49.0,97,0.00,,,0.00,Wunderground v.1.15,2013-03-08 07:41:00,
2013-03-08 02:46:00,30.0,29.3,29.95,ENE,62,43.0,49.0,97,0.00,,,0.00,Wunderground v.1.15,2013-03-08 07:46:00,
2013-03-08 02:51:00,29.9,29.2,29.95,ENE,75,45.0,52.0,97,0.00,,,0.00,Wunderground v.1.15,2013-03-08 07:51:00,
2013-03-08 02:57:00,29.8,29.1,29.96,ENE,70,36.0,52.0,97,0.00,,,0.00,Wunderground v.1.15,2013-03-08 07:57:00,
2013-03-08 03:02:00,29.8,29.1,29.95,ENE,72,46.0,48.0,97,0.00,,,0.00,Wunderground v.1.15,2013-03-08 08:02:00,
2013-03-08 03:07:00,29.8,29.1,29.95,East,79,40.0,49.0,97,0.00,,,0.00,Wunderground v.1.15,2013-03-08 08:07:00,
2013-03-08 03:12:00,29.9,29.2,29.95,ENE,75,42.0,49.0,97,0.00,,,0.00,Wunderground v.1.15,2013-03-08 08:12:00,
2013-03-08 03:17:00,30.0,29.3,29.96,ENE,77,46.0,49.0,97,0.00,,,0.00,Wunderground v.1.15,2013-03-08 08:17:00,
2013-03-08 03:22:00,29.8,29.1,29.95,ENE,70,45.0,49.0,97,0.00,,,0.00,Wunderground v.1.15,2013-03-08 08:22:00,
2013-03-08 03:27:00,29.0,28.3,29.95,ENE,71,37.0,49.0,97,0.00,,,0.00,Wunderground v.1.15,2013-03-08 08:27:00,
2013-03-08 03:32:00,29.0,28.3,29.95,ENE,71,37.0,41.0,97,0.00,,,0.00,Wunderground v.1.15,2013-03-08 08:32:00,
2013-03-08 03:37:00,-999.9,-99.9,29.95,North,32767,-999.0,41.0,255,-99.99,,,0.00,Wunderground v.1.15,2013-03-08 08:37:00,
2013-03-08 03:42:00,-999.9,-99.9,29.94,North,32767,-999.0,-999.0,255,-99.99,,,0.00,Wunderground v.1.15,2013-03-08 08:42:00,
2013-03-08 03:47:00,-999.9,-99.9,29.94,North,32767,-999.0,-999.0,255,-99.99,,,0.00,Wunderground v.1.15,2013-03-08 08:47:00,
2013-03-08 03:52:00,-999.9,-99.9,29.95,North,32767,-999.0,-999.0,255,-99.99,,,0.00,Wunderground v.1.15,2013-03-08 08:52:00,
2013-03-08 03:57:00,-999.9,-99.9,29.94,North,32767,-999.0,-999.0,255,-99.99,,,0.00,Wunderground v.1.15,2013-03-08 08:57:00,
2013-03-08 04:02:00,-999.9,-99.9,29.94,North,32767,-999.0,-999.0,255,-99.99,,,0.00,Wunderground v.1.15,2013-03-08 09:02:00,
2013-03-08 04:07:00,-999.9,-99.9,29.95,North,32767,-999.0,-999.0,255,-99.99,,,0.00,Wunderground v.1.15,2013-03-08 09:07:00,
2013-03-08 04:12:00,-999.9,-99.9,29.95,North,32767,-999.0,-999.0,255,-99.99,,,0.00,Wunderground v.1.15,2013-03-08 09:12:00,
2013-03-08 04:17:00,-999.9,-99.9,29.95,North,32767,-999.0,-999.0,255,-99.99,,,0.00,Wunderground v.1.15,2013-03-08 09:17:00,
2013-03-08 04:22:00,-999.9,-99.9,29.94,North,32767,-999.0,-999.0,255,-99.99,,,0.00,Wunderground v.1.15,2013-03-08 09:22:00,
2013-03-08 04:27:00,-999.9,-99.9,29.94,North,32767,-999.0,-999.0,255,-99.99,,,0.00,Wunderground v.1.15,2013-03-08 09:27:00,
2013-03-08 04:32:00,-999.9,-99.9,29.95,North,32767,-999.0,-999.0,255,-99.99,,,0.00,Wunderground v.1.15,2013-03-08 09:32:00,
2013-03-08 04:37:00,-999.9,-99.9,29.93,North,32767,-999.0,-999.0,255,-99.99,,,0.00,Wunderground v.1.15,2013-03-08 09:37:00,
2013-03-08 04:42:00,-999.9,-99.9,29.94,North,32767,-999.0,-999.0,255,-99.99,,,0.00,Wunderground v.1.15,2013-03-08 09:42:00,
2013-03-08 04:47:00,-999.9,-99.9,29.94,North,32767,-999.0,-999.0,255,-99.99,,,0.00,Wunderground v.1.15,2013-03-08 09:47:00,
2013-03-08 04:52:00,-999.9,-99.9,29.93,North,32767,-999.0,-999.0,255,-99.99,,,0.00,Wunderground v.1.15,2013-03-08 09:52:00,
2013-03-08 04:57:00,-999.9,-99.9,29.94,North,32767,-999.0,-999.0,255,-99.99,,,0.00,Wunderground v.1.15,2013-03-08 09:57:00,
2013-03-08 05:02:00,-999.9,-99.9,29.93,North,32767,-999.0,-999.0,255,-99.99,,,0.00,Wunderground v.1.15,2013-03-08 10:02:00,
2013-03-08 05:07:00,-999.9,-99.9,29.94,North,32767,-999.0,-999.0,255,-99.99,,,0.00,Wunderground v.1.15,2013-03-08 10:07:00,
2013-03-08 05:12:00,-999.9,-99.9,29.94,North,32767,-999.0,-999.0,255,-99.99,,,0.00,Wunderground v.1.15,2013-03-08 10:12:00,
2013-03-08 05:17:00,-999.9,-99.9,29.93,North,32767,-999.0,-999.0,255,-99.99,,,0.00,Wunderground v.1.15,2013-03-08 10:17:00,
2013-03-08 05:23:00,-999.9,-99.9,29.93,North,32767,-999.0,-999.0,255,-99.99,,,0.00,Wunderground v.1.15,2013-03-08 10:23:00,
2013-03-08 05:28:00,-999.9,-99.9,29.95,North,32767,-999.0,-999.0,255,-99.99,,,0.00,Wunderground v.1.15,2013-03-08 10:28:00,
2013-03-08 05:33:00,-999.9,-99.9,29.93,North,32767,-999.0,-999.0,255,-99.99,,,0.00,Wunderground v.1.15,2013-03-08 10:33:00,
2013-03-08 05:38:00,-999.9,-99.9,29.94,North,32767,-999.0,-999.0,255,-99.99,,,0.00,Wunderground v.1.15,2013-03-08 10:38:00,
2013-03-08 05:43:00,-999.9,-99.9,29.94,North,32767,-999.0,-999.0,255,-99.99,,,0.00,Wunderground v.1.15,2013-03-08 10:43:00,
2013-03-08 05:48:00,-999.9,-99.9,29.94,North,32767,-999.0,-999.0,255,-99.99,,,0.00,Wunderground v.1.15,2013-03-08 10:48:00,
2013-03-08 05:53:00,-999.9,-99.9,29.95,North,32767,-999.0,-999.0,255,-99.99,,,0.00,Wunderground v.1.15,2013-03-08 10:53:00,
2013-03-08 05:58:00,-999.9,-99.9,29.94,North,32767,-999.0,-999.0,255,-99.99,,,0.00,Wunderground v.1.15,2013-03-08 10:58:00,
2013-03-08 06:03:00,-999.9,-99.9,29.94,North,32767,-999.0,-999.0,255,-99.99,,,0.00,Wunderground v.1.15,2013-03-08 11:03:00,
2013-03-08 06:08:00,-999.9,-99.9,29.95,North,32767,-999.0,-999.0,255,-99.99,,,0.00,Wunderground v.1.15,2013-03-08 11:08:00,
2013-03-08 06:13:00,-999.9,-99.9,29.95,North,32767,-999.0,-999.0,255,-99.99,,,0.00,Wunderground v.1.15,2013-03-08 11:13:00,
2013-03-08 06:18:00,-999.9,-99.9,29.94,North,32767,-999.0,-999.0,255,-99.99,,,0.00,Wunderground v.1.15,2013-03-08 11:18:00,
2013-03-08 06:23:00,-999.9,-99.9,29.95,North,32767,-999.0,-999.0,255,-99.99,,,0.00,Wunderground v.1.15,2013-03-08 11:23:00,
2013-03-08 06:28:00,-999.9,-99.9,29.94,North,32767,-999.0,-999.0,255,-99.99,,,0.00,Wunderground v.1.15,2013-03-08 11:28:00,
2013-03-08 06:33:00,-999.9,-99.9,29.95,North,32767,-999.0,-999.0,255,-99.99,,,0.00,Wunderground v.1.15,2013-03-08 11:33:00,
2013-03-08 06:38:00,-999.9,-99.9,29.95,North,32767,-999.0,-999.0,255,-99.99,,,0.00,Wunderground v.1.15,2013-03-08 11:38:00,
2013-03-08 06:43:00,-999.9,-99.9,29.96,North,32767,-999.0,-999.0,255,-99.99,,,0.00,Wunderground v.1.15,2013-03-08 11:43:00,
2013-03-08 06:48:00,-999.9,-99.9,29.96,North,32767,-999.0,-999.0,255,-99.99,,,0.00,Wunderground v.1.15,2013-03-08 11:48:00,
2013-03-08 06:53:00,-999.9,-99.9,29.96,North,32767,-999.0,-999.0,255,-99.99,,,0.00,Wunderground v.1.15,2013-03-08 11:53:00,
2013-03-08 06:58:00,-999.9,-99.9,29.96,North,32767,-999.0,-999.0,255,-99.99,,,0.00,Wunderground v.1.15,2013-03-08 11:58:00,
2013-03-08 07:03:00,-999.9,-99.9,29.97,North,32767,-999.0,-999.0,255,-99.99,,,0.00,Wunderground v.1.15,2013-03-08 12:03:00,
2013-03-08 07:08:00,-999.9,-99.9,29.95,North,32767,-999.0,-999.0,255,-99.99,,,0.00,Wunderground v.1.15,2013-03-08 12:08:00,
2013-03-08 07:13:00,-999.9,-99.9,29.96,North,32767,-999.0,-999.0,255,-99.99,,,0.00,Wunderground v.1.15,2013-03-08 12:13:00,
2013-03-08 07:18:00,-999.9,-99.9,29.96,North,32767,-999.0,-999.0,255,-99.99,,,0.00,Wunderground v.1.15,2013-03-08 12:18:00,
2013-03-08 07:23:00,-999.9,-99.9,29.96,North,32767,-999.0,-999.0,255,-99.99,,,0.00,Wunderground v.1.15,2013-03-08 12:23:00,
2013-03-08 07:28:00,-999.9,-99.9,29.96,North,32767,-999.0,-999.0,255,-99.99,,,0.00,Wunderground v.1.15,2013-03-08 12:28:00,
2013-03-08 07:33:00,-999.9,-99.9,29.96,North,32767,-999.0,-999.0,255,-99.99,,,0.00,Wunderground v.1.15,2013-03-08 12:33:00,
2013-03-08 07:38:00,-999.9,-99.9,29.96,North,32767,-999.0,-999.0,255,-99.99,,,0.00,Wunderground v.1.15,2013-03-08 12:38:00,
2013-03-08 07:43:00,29.2,28.5,29.96,East,79,46.0,52.0,97,0.00,,,0.00,Wunderground v.1.15,2013-03-08 12:43:00,
2013-03-08 07:48:00,29.0,28.3,29.97,ENE,77,48.0,52.0,97,0.00,,,0.00,Wunderground v.1.15,2013-03-08 12:48:00,
2013-03-08 07:53:00,29.1,28.4,29.97,East,83,44.0,51.0,97,0.00,,,0.00,Wunderground v.1.15,2013-03-08 12:53:00,
2013-03-08 07:58:00,29.2,28.5,29.97,East,79,39.0,52.0,97,0.00,,,0.00,Wunderground v.1.15,2013-03-08 12:58:00,
2013-03-08 08:03:00,29.1,28.4,29.97,ENE,73,40.0,51.0,97,0.00,,,0.00,Wunderground v.1.15,2013-03-08 13:03:00,
2013-03-08 08:08:00,29.1,28.1,29.97,ENE,70,46.0,52.0,96,0.00,,,0.00,Wunderground v.1.15,2013-03-08 13:08:00,
2013-03-08 08:13:00,29.2,28.2,29.96,ENE,69,46.0,49.0,96,0.00,,,0.00,Wunderground v.1.15,2013-03-08 13:13:00,
2013-03-08 08:18:00,29.3,28.3,29.98,ENE,76,42.0,53.0,96,0.00,,,0.00,Wunderground v.1.15,2013-03-08 13:18:00,
2013-03-08 08:23:00,29.1,28.1,29.98,East,79,47.0,52.0,96,0.00,,,0.00,Wunderground v.1.15,2013-03-08 13:23:00,
2013-03-08 08:28:00,29.3,28.3,29.98,ENE,77,44.0,52.0,96,0.00,,,0.00,Wunderground v.1.15,2013-03-08 13:28:00,
2013-03-08 08:33:00,29.4,28.4,29.98,East,82,47.0,51.0,96,0.00,,,0.00,Wunderground v.1.15,2013-03-08 13:33:00,
2013-03-08 08:38:00,29.4,28.4,29.98,East,79,42.0,52.0,96,0.00,,,0.00,Wunderground v.1.15,2013-03-08 13:38:00,
2013-03-08 08:43:00,29.4,28.4,29.98,ENE,76,45.0,49.0,96,0.00,,,0.00,Wunderground v.1.15,2013-03-08 13:43:00,
2013-03-08 08:48:00,29.5,28.5,29.99,East,82,43.0,50.0,96,0.00,,,0.00,Wunderground v.1.15,2013-03-08 13:48:00,
2013-03-08 08:53:00,29.5,28.2,29.97,East,79,52.0,54.0,95,0.00,,,0.00,Wunderground v.1.15,2013-03-08 13:53:00,
2013-03-08 08:58:00,29.8,28.8,29.97,East,83,42.0,55.0,96,0.00,,,0.00,Wunderground v.1.15,2013-03-08 13:58:00,
2013-03-08 09:03:00,30.1,29.1,29.97,ENE,71,48.0,55.0,96,0.00,,,0.00,Wunderground v.1.15,2013-03-08 14:03:00,
2013-03-08 09:08:00,29.9,28.6,29.97,East,84,35.0,55.0,95,0.00,,,0.00,Wunderground v.1.15,2013-03-08 14:08:00,
2013-03-08 09:13:00,30.2,28.9,29.98,East,81,47.0,53.0,95,0.00,,,0.00,Wunderground v.1.15,2013-03-08 14:13:00,
2013-03-08 09:18:00,30.3,29.0,29.98,ENE,77,42.0,53.0,95,0.00,,,0.00,Wunderground v.1.15,2013-03-08 14:18:00,
2013-03-08 09:23:00,30.4,28.9,29.98,East,82,41.0,56.0,94,0.00,,,0.00,Wunderground v.1.15,2013-03-08 14:23:00,
2013-03-08 09:28:00,30.4,28.9,29.98,East,82,44.0,56.0,94,0.00,,,0.00,Wunderground v.1.15,2013-03-08 14:28:00,
2013-03-08 09:33:00,30.8,28.5,29.98,ENE,73,43.0,52.0,91,0.00,,,0.00,Wunderground v.1.15,2013-03-08 14:33:00,
2013-03-08 09:38:00,30.9,28.6,29.99,ENE,75,49.0,52.0,91,0.00,,,0.00,Wunderground v.1.15,2013-03-08 14:38:00,
2013-03-08 09:43:00,31.0,28.4,29.99,ENE,77,50.0,53.0,90,0.00,,,0.00,Wunderground v.1.15,2013-03-08 14:43:00,
2013-03-08 09:49:00,31.0,28.1,29.98,ENE,75,48.0,55.0,89,0.00,,,0.00,Wunderground v.1.15,2013-03-08 14:49:00,
2013-03-08 09:54:00,31.1,28.2,29.99,ENE,72,37.0,55.0,89,0.00,,,0.00,Wunderground v.1.15,2013-03-08 14:54:00,
2013-03-08 09:59:00,31.1,28.5,29.99,ENE,72,34.0,56.0,90,0.00,,,0.00,Wunderground v.1.15,2013-03-08 14:59:00,
2013-03-08 10:04:00,31.1,28.2,29.99,ENE,71,47.0,51.0,89,0.00,,,0.00,Wunderground v.1.15,2013-03-08 15:04:00,
2013-03-08 10:09:00,30.8,28.2,29.98,East,79,58.0,59.0,90,0.00,,,0.00,Wunderground v.1.15,2013-03-08 15:09:00,
2013-03-08 10:14:00,30.6,28.6,29.99,ENE,62,44.0,59.0,92,0.00,,,0.00,Wunderground v.1.15,2013-03-08 15:14:00,
2013-03-08 10:19:00,30.7,28.4,29.99,East,79,46.0,46.0,91,0.00,,,0.00,Wunderground v.1.15,2013-03-08 15:19:00,
2013-03-08 10:24:00,30.7,28.7,30.00,East,79,46.0,54.0,92,0.00,,,0.00,Wunderground v.1.15,2013-03-08 15:24:00,
2013-03-08 10:29:00,30.8,28.8,29.99,ENE,75,43.0,43.0,92,0.00,,,0.00,Wunderground v.1.15,2013-03-08 15:29:00,
2013-03-08 10:34:00,30.8,28.8,29.99,East,83,47.0,51.0,92,0.00,,,0.00,Wunderground v.1.15,2013-03-08 15:34:00,
2013-03-08 10:39:00,31.1,29.0,29.99,ENE,73,42.0,43.0,92,0.00,,,0.00,Wunderground v.1.15,2013-03-08 15:39:00,
2013-03-08 10:44:00,31.0,28.7,30.00,East,79,38.0,48.0,91,0.00,,,0.00,Wunderground v.1.15,2013-03-08 15:44:00,
2013-03-08 10:49:00,30.9,28.9,30.00,ENE,77,40.0,47.0,92,0.00,,,0.00,Wunderground v.1.15,2013-03-08 15:49:00,
2013-03-08 10:54:00,30.8,29.0,29.98,ENE,78,43.0,51.0,93,0.00,,,0.00,Wunderground v.1.15,2013-03-08 15:54:00,
2013-03-08 10:59:00,30.8,29.3,30.00,ENE,78,43.0,47.0,94,0.00,,,0.00,Wunderground v.1.15,2013-03-08 15:59:00,
2013-03-08 11:04:00,30.8,29.3,30.00,ENE,77,45.0,52.0,94,0.00,,,0.00,Wunderground v.1.15,2013-03-08 16:04:00,
2013-03-08 11:09:00,30.9,29.1,29.99,ENE,63,45.0,49.0,93,0.00,,,0.00,Wunderground v.1.15,2013-03-08 16:09:00,
2013-03-08 11:14:00,31.1,29.3,30.00,East,82,53.0,54.0,93,0.00,,,0.00,Wunderground v.1.15,2013-03-08 16:14:00,
2013-03-08 11:19:00,31.5,29.7,30.00,ENE,71,34.0,45.0,93,0.00,,,0.00,Wunderground v.1.15,2013-03-08 16:19:00,
2013-03-08 11:24:00,32.1,29.8,29.98,ENE,70,38.0,47.0,91,0.00,,,0.00,Wunderground v.1.15,2013-03-08 16:24:00,
2013-03-08 11:29:00,32.7,30.1,29.99,ENE,68,42.0,43.0,90,0.00,,,0.00,Wunderground v.1.15,2013-03-08 16:29:00,
2013-03-08 11:34:00,33.2,30.3,30.00,East,81,43.0,51.0,89,0.00,,,0.00,Wunderground v.1.15,2013-03-08 16:34:00,
2013-03-08 11:39:00,33.4,30.5,29.99,ENE,73,40.0,48.0,89,0.00,,,0.00,Wunderground v.1.15,2013-03-08 16:39:00,
2013-03-08 11:44:00,33.9,29.0,30.00,ENE,77,45.0,51.0,82,0.00,,,0.00,Wunderground v.1.15,2013-03-08 16:44:00,
2013-03-08 11:49:00,34.5,27.4,29.99,ENE,76,40.0,50.0,75,0.00,,,0.00,Wunderground v.1.15,2013-03-08 16:49:00,
2013-03-08 11:55:00,34.7,27.9,29.99,East,81,38.0,50.0,76,0.00,,,0.00,Wunderground v.1.15,2013-03-08 16:55:00,
2013-03-08 12:00:00,35.0,27.5,29.99,ENE,76,46.0,46.0,74,0.00,,,0.00,Wunderground v.1.15,2013-03-08 17:00:00,
2013-03-08 12:05:00,35.1,28.3,30.00,East,84,37.0,47.0,76,0.00,,,0.00,Wunderground v.1.15,2013-03-08 17:05:00,
2013-03-08 12:10:00,34.5,31.0,30.00,East,83,42.0,44.0,87,0.00,,,0.00,Wunderground v.1.15,2013-03-08 17:10:00,
2013-03-08 12:15:00,34.3,31.7,30.00,East,91,39.0,44.0,90,0.00,,,0.00,Wunderground v.1.15,2013-03-08 17:15:00,
2013-03-08 12:20:00,34.3,31.9,30.00,East,82,39.0,44.0,91,0.00,,,0.00,Wunderground v.1.15,2013-03-08 17:20:00,
2013-03-08 12:25:00,34.6,32.0,30.00,East,86,38.0,51.0,90,0.00,,,0.00,Wunderground v.1.15,2013-03-08 17:25:00,
2013-03-08 12:30:00,34.7,31.8,30.00,ENE,76,38.0,41.0,89,0.00,,,0.00,Wunderground v.1.15,2013-03-08 17:30:00,
2013-03-08 12:35:00,35.8,28.3,29.99,East,83,41.0,44.0,74,0.00,,,0.00,Wunderground v.1.15,2013-03-08 17:35:00,
2013-03-08 12:40:00,36.4,28.2,30.00,ENE,72,35.0,39.0,72,0.00,,,0.00,Wunderground v.1.15,2013-03-08 17:40:00,
2013-03-08 12:45:00,36.7,28.5,30.00,ENE,77,40.0,44.0,72,0.00,,,0.00,Wunderground v.1.15,2013-03-08 17:45:00,
2013-03-08 12:51:00,36.9,27.7,30.00,East,82,35.0,42.0,69,0.00,,,0.00,Wunderground v.1.15,2013-03-08 17:51:00,
2013-03-08 12:56:00,37.1,27.2,29.99,ENE,74,40.0,46.0,67,0.00,,,0.00,Wunderground v.1.15,2013-03-08 17:56:00,
2013-03-08 13:01:00,37.3,27.3,30.00,ENE,76,35.0,45.0,67,0.00,,,0.00,Wunderground v.1.15,2013-03-08 18:01:00,
2013-03-08 13:06:00,37.6,27.3,29.99,East,79,38.0,45.0,66,0.00,,,0.00,Wunderground v.1.15,2013-03-08 18:06:00,
2013-03-08 13:11:00,37.9,27.2,29.99,ENE,78,44.0,44.0,65,0.00,,,0.00,Wunderground v.1.15,2013-03-08 18:11:00,
2013-03-08 13:16:00,38.0,28.7,30.00,ENE,70,30.0,44.0,69,0.00,,,0.00,Wunderground v.1.15,2013-03-08 18:16:00,
2013-03-08 13:21:00,38.2,27.1,29.99,ENE,70,41.0,45.0,64,0.00,,,0.00,Wunderground v.1.15,2013-03-08 18:21:00,
2013-03-08 13:26:00,38.3,28.7,30.00,ENE,75,38.0,45.0,68,0.00,,,0.00,Wunderground v.1.15,2013-03-08 18:26:00,
2013-03-08 13:31:00,38.4,28.4,30.00,ENE,71,31.0,38.0,67,0.00,,,0.00,Wunderground v.1.15,2013-03-08 18:31:00,
2013-03-08 13:36:00,38.5,28.5,30.00,East,82,36.0,43.0,67,0.00,,,0.00,Wunderground v.1.15,2013-03-08 18:36:00,
2013-03-08 13:41:00,38.6,28.2,30.00,East,81,34.0,37.0,66,0.00,,,0.00,Wunderground v.1.15,2013-03-08 18:41:00,
2013-03-08 13:46:00,38.9,28.5,30.00,ENE,74,32.0,43.0,66,0.00,,,0.00,Wunderground v.1.15,2013-03-08 18:46:00,
2013-03-08 13:51:00,39.1,27.9,30.00,ENE,77,35.0,41.0,64,0.00,,,0.00,Wunderground v.1.15,2013-03-08 18:51:00,
2013-03-08 13:56:00,39.2,28.8,30.00,ENE,72,35.0,41.0,66,0.00,,,0.00,Wunderground v.1.15,2013-03-08 18:56:00,
2013-03-08 14:01:00,39.3,28.9,30.01,ENE,75,33.0,37.0,66,0.00,,,0.00,Wunderground v.1.15,2013-03-08 19:01:00,
2013-03-08 14:06:00,39.5,28.3,30.01,ENE,70,29.0,40.0,64,0.00,,,0.00,Wunderground v.1.15,2013-03-08 19:06:00,
2013-03-08 14:11:00,39.7,28.5,30.00,ENE,71,35.0,38.0,64,0.00,,,0.00,Wunderground v.1.15,2013-03-08 19:11:00,
2013-03-08 14:16:00,39.9,27.9,30.01,East,82,34.0,42.0,62,0.00,,,0.00,Wunderground v.1.15,2013-03-08 19:16:00,
2013-03-08 14:21:00,40.1,28.1,30.01,ENE,70,34.0,42.0,62,0.00,,,0.00,Wunderground v.1.15,2013-03-08 19:21:00,
2013-03-08 14:26:00,40.2,29.0,30.01,East,80,36.0,42.0,64,0.00,,,0.00,Wunderground v.1.15,2013-03-08 19:26:00,
2013-03-08 14:31:00,40.3,28.7,30.01,East,79,35.0,37.0,63,0.00,,,0.00,Wunderground v.1.15,2013-03-08 19:31:00,
2013-03-08 14:36:00,40.4,28.4,30.02,East,83,37.0,40.0,62,0.00,,,0.00,Wunderground v.1.15,2013-03-08 19:36:00,
2013-03-08 14:41:00,40.5,28.5,30.01,East,82,32.0,38.0,62,0.00,,,0.00,Wunderground v.1.15,2013-03-08 19:41:00,
2013-03-08 14:46:00,40.4,29.2,30.02,East,86,29.0,38.0,64,0.00,,,0.00,Wunderground v.1.15,2013-03-08 19:46:00,
2013-03-08 14:51:00,40.5,28.5,30.01,ENE,78,35.0,37.0,62,0.00,,,0.00,Wunderground v.1.15,2013-03-08 19:51:00,
2013-03-08 14:56:00,40.6,29.7,30.02,ENE,73,30.0,37.0,65,0.00,,,0.00,Wunderground v.1.15,2013-03-08 19:56:00,
2013-03-08 15:01:00,40.7,29.1,30.02,East,79,31.0,36.0,63,0.00,,,0.00,Wunderground v.1.15,2013-03-08 20:01:00,
2013-03-08 15:06:00,40.6,29.7,30.02,ENE,77,30.0,36.0,65,0.00,,,0.00,Wunderground v.1.15,2013-03-08 20:06:00,
2013-03-08 15:11:00,40.6,29.4,30.02,ENE,78,34.0,34.0,64,0.00,,,0.00,Wunderground v.1.15,2013-03-08 20:11:00,
2013-03-08 15:16:00,40.6,30.1,30.02,ENE,77,28.0,34.0,66,0.00,,,0.00,Wunderground v.1.15,2013-03-08 20:16:00,
2013-03-08 15:21:00,40.8,29.2,30.02,East,85,26.0,33.0,63,0.00,,,0.00,Wunderground v.1.15,2013-03-08 20:21:00,
2013-03-08 15:26:00,41.0,29.4,30.03,East,79,30.0,36.0,63,0.00,,,0.00,Wunderground v.1.15,2013-03-08 20:26:00,
2013-03-08 15:31:00,41.0,29.4,30.03,East,82,26.0,34.0,63,0.00,,,0.00,Wunderground v.1.15,2013-03-08 20:31:00,
2013-03-08 15:36:00,40.9,30.0,30.03,ENE,77,33.0,34.0,65,0.00,,,0.00,Wunderground v.1.15,2013-03-08 20:36:00,
2013-03-08 15:41:00,41.0,29.7,30.03,East,79,30.0,31.0,64,0.00,,,0.00,Wunderground v.1.15,2013-03-08 20:41:00,
2013-03-08 15:46:00,41.0,30.1,30.03,East,84,27.0,31.0,65,0.00,,,0.00,Wunderground v.1.15,2013-03-08 20:46:00,
2013-03-08 15:51:00,40.9,30.4,30.03,East,84,28.0,32.0,66,0.00,,,0.00,Wunderground v.1.15,2013-03-08 20:51:00,
2013-03-08 15:56:00,40.9,30.4,30.04,East,82,26.0,32.0,66,0.00,,,0.00,Wunderground v.1.15,2013-03-08 20:56:00,
2013-03-08 16:01:00,40.9,30.4,30.04,East,86,25.0,29.0,66,0.00,,,0.00,Wunderground v.1.15,2013-03-08 21:01:00,
2013-03-08 16:06:00,40.9,30.8,30.04,East,79,24.0,30.0,67,0.00,,,0.00,Wunderground v.1.15,2013-03-08 21:06:00,
2013-03-08 16:11:00,41.0,30.9,30.04,East,82,24.0,29.0,67,0.00,,,0.00,Wunderground v.1.15,2013-03-08 21:11:00,
2013-03-08 16:16:00,41.1,30.6,30.05,East,80,30.0,32.0,66,0.00,,,0.00,Wunderground v.1.15,2013-03-08 21:16:00,
2013-03-08 16:21:00,41.3,30.8,30.04,East,84,28.0,33.0,66,0.00,,,0.00,Wunderground v.1.15,2013-03-08 21:21:00,
2013-03-08 16:26:00,41.4,30.5,30.05,East,80,32.0,33.0,65,0.00,,,0.00,Wunderground v.1.15,2013-03-08 21:26:00,
2013-03-08 16:31:00,41.6,30.7,30.05,East,80,27.0,34.0,65,0.00,,,0.00,Wunderground v.1.15,2013-03-08 21:31:00,
2013-03-08 16:36:00,41.6,30.7,30.05,East,81,29.0,34.0,65,0.00,,,0.00,Wunderground v.1.15,2013-03-08 21:36:00,
2013-03-08 16:41:00,41.6,30.7,30.05,East,84,31.0,33.0,65,0.00,,,0.00,Wunderground v.1.15,2013-03-08 21:41:00,
2013-03-08 16:46:00,41.4,31.3,30.05,East,79,25.0,33.0,67,0.00,,,0.00,Wunderground v.1.15,2013-03-08 21:46:00,
2013-03-08 16:52:00,41.6,31.1,30.06,ENE,76,28.0,31.0,66,0.00,,,0.00,Wunderground v.1.15,2013-03-08 21:52:00,
2013-03-08 16:57:00,41.5,31.4,30.06,ENE,74,24.0,33.0,67,0.00,,,0.00,Wunderground v.1.15,2013-03-08 21:57:00,
2013-03-08 17:02:00,41.8,30.9,30.06,East,79,29.0,29.0,65,0.00,,,0.00,Wunderground v.1.15,2013-03-08 22:02:00,
2013-03-08 17:07:00,41.9,29.8,30.06,East,80,28.0,32.0,62,0.00,,,0.00,Wunderground v.1.15,2013-03-08 22:07:00,
2013-03-08 17:12:00,42.1,29.6,30.06,ENE,74,35.0,35.0,61,0.00,,,0.00,Wunderground v.1.15,2013-03-08 22:12:00,
2013-03-08 17:17:00,42.3,29.4,30.06,ENE,77,32.0,35.0,60,0.00,,,0.00,Wunderground v.1.15,2013-03-08 22:17:00,
2013-03-08 17:22:00,42.3,29.8,30.07,East,80,24.0,33.0,61,0.00,,,0.00,Wunderground v.1.15,2013-03-08 22:22:00,
2013-03-08 17:27:00,42.2,29.7,30.07,ENE,77,30.0,33.0,61,0.00,,,0.00,Wunderground v.1.15,2013-03-08 22:27:00,
2013-03-08 17:32:00,42.4,29.1,30.07,ENE,76,30.0,34.0,59,0.00,,,0.00,Wunderground v.1.15,2013-03-08 22:32:00,
2013-03-08 17:37:00,42.2,29.7,30.07,ENE,68,23.0,34.0,61,0.00,,,0.00,Wunderground v.1.15,2013-03-08 22:37:00,
2013-03-08 17:42:00,42.0,29.9,30.08,ENE,68,24.0,29.0,62,0.00,,,0.00,Wunderground v.1.15,2013-03-08 22:42:00,
2013-03-08 17:47:00,42.2,29.3,30.08,ENE,75,29.0,33.0,60,0.00,,,0.00,Wunderground v.1.15,2013-03-08 22:47:00,
2013-03-08 17:52:00,42.2,29.3,30.08,ENE,73,28.0,32.0,60,0.00,,,0.00,Wunderground v.1.15,2013-03-08 22:52:00,
2013-03-08 17:57:00,42.3,29.4,30.08,ENE,76,30.0,33.0,60,0.00,,,0.00,Wunderground v.1.15,2013-03-08 22:57:00,
2013-03-08 18:02:00,42.3,29.4,30.08,ENE,77,32.0,33.0,60,0.00,,,0.00,Wunderground v.1.15,2013-03-08 23:02:00,
2013-03-08 18:07:00,42.4,29.1,30.08,ENE,75,29.0,33.0,59,0.00,,,0.00,Wunderground v.1.15,2013-03-08 23:07:00,
2013-03-08 18:12:00,42.4,28.7,30.08,East,79,32.0,34.0,58,0.00,,,0.00,Wunderground v.1.15,2013-03-08 23:12:00,
2013-03-08 18:17:00,42.4,29.5,30.09,ENE,78,27.0,35.0,60,0.00,,,0.00,Wunderground v.1.15,2013-03-08 23:17:00,
2013-03-08 18:22:00,42.0,29.5,30.09,ENE,75,26.0,30.0,61,0.00,,,0.00,Wunderground v.1.15,2013-03-08 23:22:00,
2013-03-08 18:27:00,41.9,29.4,30.09,ENE,75,26.0,30.0,61,0.00,,,0.00,Wunderground v.1.15,2013-03-08 23:27:00,
2013-03-08 18:32:00,41.8,29.3,30.09,ENE,69,27.0,30.0,61,0.00,,,0.00,Wunderground v.1.15,2013-03-08 23:32:00,
2013-03-08 18:38:00,42.0,28.7,30.09,ENE,67,29.0,32.0,59,0.00,,,0.00,Wunderground v.1.15,2013-03-08 23:38:00,
2013-03-08 18:43:00,42.1,29.2,30.09,ENE,70,28.0,31.0,60,0.00,,,0.00,Wunderground v.1.15,2013-03-08 23:43:00,
2013-03-08 18:48:00,42.0,29.5,30.09,East,84,23.0,31.0,61,0.00,,,0.00,Wunderground v.1.15,2013-03-08 23:48:00,
2013-03-08 18:53:00,41.8,30.1,30.10,ENE,76,27.0,28.0,63,0.00,,,0.00,Wunderground v.1.15,2013-03-08 23:53:00,
2013-03-08 18:58:00,41.6,29.5,30.09,ENE,77,24.0,32.0,62,0.00,,,0.00,Wunderground v.1.15,2013-03-08 23:58:00,
2013-03-08 19:03:00,41.8,29.7,30.10,ENE,71,26.0,34.0,62,0.00,,,0.00,Wunderground v.1.15,2013-03-09 00:03:00,
2013-03-08 19:08:00,41.8,29.3,30.10,ENE,69,28.0,34.0,61,0.00,,,0.00,Wunderground v.1.15,2013-03-09 00:08:00,
2013-03-08 19:13:00,41.9,28.2,30.10,ENE,74,30.0,32.0,58,0.00,,,0.00,Wunderground v.1.15,2013-03-09 00:13:00,
2013-03-08 19:18:00,42.1,28.4,30.10,ENE,76,32.0,38.0,58,0.00,,,0.00,Wunderground v.1.15,2013-03-09 00:18:00,
2013-03-08 19:23:00,41.9,28.6,30.10,East,79,29.0,34.0,59,0.00,,,0.00,Wunderground v.1.15,2013-03-09 00:23:00,
2013-03-08 19:28:00,41.9,28.6,30.11,ENE,65,29.0,39.0,59,0.00,,,0.00,Wunderground v.1.15,2013-03-09 00:28:00,
2013-03-08 19:33:00,42.0,27.9,30.10,East,82,34.0,39.0,57,0.00,,,0.00,Wunderground v.1.15,2013-03-09 00:33:00,
2013-03-08 19:38:00,42.0,27.9,30.11,ENE,78,32.0,39.0,57,0.00,,,0.00,Wunderground v.1.15,2013-03-09 00:38:00,
2013-03-08 19:43:00,41.7,28.8,30.11,ENE,74,30.0,34.0,60,0.00,,,0.00,Wunderground v.1.15,2013-03-09 00:43:00,
2013-03-08 19:48:00,41.3,29.6,30.11,East,82,29.0,34.0,63,0.00,,,0.00,Wunderground v.1.15,2013-03-09 00:48:00,
2013-03-08 19:53:00,41.4,28.1,30.10,ENE,70,32.0,32.0,59,0.00,,,0.00,Wunderground v.1.15,2013-03-09 00:53:00,
2013-03-08 19:58:00,41.7,26.7,30.11,East,79,29.0,37.0,55,0.00,,,0.00,Wunderground v.1.15,2013-03-09 00:58:00,
2013-03-08 20:03:00,41.5,28.6,30.11,ENE,76,33.0,36.0,60,0.00,,,0.00,Wunderground v.1.15,2013-03-09 01:03:00,
2013-03-08 20:08:00,41.6,28.3,30.11,East,82,26.0,37.0,59,0.00,,,0.00,Wunderground v.1.15,2013-03-09 01:08:00,
2013-03-08 20:13:00,41.4,28.5,30.11,ENE,76,35.0,35.0,60,0.00,,,0.00,Wunderground v.1.15,2013-03-09 01:13:00,
2013-03-08 20:18:00,41.3,28.9,30.11,ENE,74,30.0,35.0,61,0.00,,,0.00,Wunderground v.1.15,2013-03-09 01:18:00,
2013-03-08 20:23:00,41.3,28.0,30.11,ENE,77,30.0,36.0,59,0.00,,,0.00,Wunderground v.1.15,2013-03-09 01:23:00,
2013-03-08 20:28:00,41.2,28.4,30.11,ENE,77,34.0,38.0,60,0.00,,,0.00,Wunderground v.1.15,2013-03-09 01:28:00,
2013-03-08 20:33:00,41.3,28.4,30.11,ENE,75,35.0,37.0,60,0.00,,,0.00,Wunderground v.1.15,2013-03-09 01:33:00,
2013-03-08 20:38:00,41.3,28.0,30.12,ENE,78,34.0,37.0,59,0.00,,,0.00,Wunderground v.1.15,2013-03-09 01:38:00,
2013-03-08 20:43:00,41.2,28.8,30.12,East,80,30.0,35.0,61,0.00,,,0.00,Wunderground v.1.15,2013-03-09 01:43:00,
2013-03-08 20:48:00,41.1,28.7,30.12,ENE,77,32.0,37.0,61,0.00,,,0.00,Wunderground v.1.15,2013-03-09 01:48:00,
2013-03-08 20:53:00,41.1,28.7,30.12,ENE,78,30.0,36.0,61,0.00,,,0.00,Wunderground v.1.15,2013-03-09 01:53:00,
2013-03-08 20:58:00,40.9,29.3,30.12,ENE,75,35.0,36.0,63,0.00,,,0.00,Wunderground v.1.15,2013-03-09 01:58:00,
2013-03-08 21:03:00,40.9,28.5,30.12,ENE,70,33.0,36.0,61,0.00,,,0.00,Wunderground v.1.15,2013-03-09 02:03:00,
2013-03-08 21:08:00,41.0,28.6,30.12,ENE,76,35.0,39.0,61,0.00,,,0.00,Wunderground v.1.15,2013-03-09 02:08:00,
2013-03-08 21:13:00,41.1,28.3,30.12,East,79,34.0,39.0,60,0.00,,,0.00,Wunderground v.1.15,2013-03-09 02:13:00,
2013-03-08 21:18:00,40.9,27.7,30.12,East,82,36.0,40.0,59,0.00,,,0.00,Wunderground v.1.15,2013-03-09 02:18:00,
2013-03-08 21:23:00,40.9,28.5,30.13,ENE,77,29.0,39.0,61,0.00,,,0.00,Wunderground v.1.15,2013-03-09 02:23:00,
2013-03-08 21:28:00,40.8,28.4,30.13,ENE,74,31.0,39.0,61,0.00,,,0.00,Wunderground v.1.15,2013-03-09 02:28:00,
2013-03-08 21:33:00,40.8,27.6,30.13,East,79,28.0,38.0,59,0.00,,,0.00,Wunderground v.1.15,2013-03-09 02:33:00,
2013-03-08 21:38:00,40.7,27.9,30.13,East,80,33.0,38.0,60,0.00,,,0.00,Wunderground v.1.15,2013-03-09 02:38:00,
2013-03-08 21:43:00,40.8,27.6,30.13,ENE,74,33.0,37.0,59,0.00,,,0.00,Wunderground v.1.15,2013-03-09 02:43:00,
2013-03-08 21:48:00,40.6,28.2,30.13,ENE,76,32.0,37.0,61,0.00,,,0.00,Wunderground v.1.15,2013-03-09 02:48:00,
2013-03-08 21:53:00,40.5,28.5,30.14,East,80,28.0,36.0,62,0.00,,,0.00,Wunderground v.1.15,2013-03-09 02:53:00,
2013-03-08 21:58:00,40.6,28.6,30.13,ENE,74,33.0,38.0,62,0.00,,,0.00,Wunderground v.1.15,2013-03-09 02:58:00,
2013-03-08 22:03:00,40.4,28.8,30.13,ENE,70,32.0,35.0,63,0.00,,,0.00,Wunderground v.1.15,2013-03-09 03:03:00,
2013-03-08 22:08:00,40.3,28.7,30.13,ENE,77,32.0,37.0,63,0.00,,,0.00,Wunderground v.1.15,2013-03-09 03:08:00,
2013-03-08 22:13:00,40.2,28.6,30.14,ENE,77,30.0,34.0,63,0.00,,,0.00,Wunderground v.1.15,2013-03-09 03:13:00,
2013-03-08 22:19:00,40.1,28.5,30.13,ENE,73,28.0,35.0,63,0.00,,,0.00,Wunderground v.1.15,2013-03-09 03:19:00,
2013-03-08 22:24:00,40.1,28.1,30.14,ENE,76,30.0,35.0,62,0.00,,,0.00,Wunderground v.1.15,2013-03-09 03:24:00,
2013-03-08 22:29:00,40.0,28.8,30.14,ENE,78,31.0,35.0,64,0.00,,,0.00,Wunderground v.1.15,2013-03-09 03:29:00,
2013-03-08 22:34:00,39.9,29.1,30.14,ENE,61,31.0,32.0,65,0.00,,,0.00,Wunderground v.1.15,2013-03-09 03:34:00,
2013-03-08 22:39:00,39.8,29.0,30.14,East,79,32.0,34.0,65,0.00,,,0.00,Wunderground v.1.15,2013-03-09 03:39:00,
2013-03-08 22:44:00,39.9,28.7,30.14,ENE,75,27.0,37.0,64,0.00,,,0.00,Wunderground v.1.15,2013-03-09 03:44:00,
2013-03-08 22:49:00,39.7,28.9,30.14,ENE,72,25.0,37.0,65,0.00,,,0.00,Wunderground v.1.15,2013-03-09 03:49:00,
2013-03-08 22:54:00,39.8,27.8,30.14,East,80,32.0,35.0,62,0.00,,,0.00,Wunderground v.1.15,2013-03-09 03:54:00,
2013-03-08 22:59:00,39.6,28.8,30.14,ENE,75,28.0,35.0,65,0.00,,,0.00,Wunderground v.1.15,2013-03-09 03:59:00,
2013-03-08 23:04:00,39.6,28.8,30.14,ENE,74,28.0,33.0,65,0.00,,,0.00,Wunderground v.1.15,2013-03-09 04:04:00,
2013-03-08 23:09:00,39.5,28.3,30.13,ENE,76,32.0,34.0,64,0.00,,,0.00,Wunderground v.1.15,2013-03-09 04:09:00,
2013-03-08 23:14:00,39.5,28.3,30.14,ENE,73,27.0,34.0,64,0.00,,,0.00,Wunderground v.1.15,2013-03-09 04:14:00,
2013-03-08 23:19:00,39.4,29.0,30.13,ENE,75,32.0,34.0,66,0.00,,,0.00,Wunderground v.1.15,2013-03-09 04:19:00,
2013-03-08 23:24:00,39.3,28.1,30.13,ENE,76,31.0,34.0,64,0.00,,,0.00,Wunderground v.1.15,2013-03-09 04:24:00,
2013-03-08 23:29:00,39.3,27.7,30.13,ENE,73,34.0,36.0,63,0.00,,,0.00,Wunderground v.1.15,2013-03-09 04:29:00,
2013-03-08 23:34:00,39.3,27.7,30.13,East,89,31.0,35.0,63,0.00,,,0.00,Wunderground v.1.15,2013-03-09 04:34:00,
2013-03-08 23:39:00,39.2,28.4,30.14,ENE,72,30.0,35.0,65,0.00,,,0.00,Wunderground v.1.15,2013-03-09 04:39:00,
2013-03-08 23:44:00,39.1,28.7,30.14,East,79,31.0,34.0,66,0.00,,,0.00,Wunderground v.1.15,2013-03-09 04:44:00,
2013-03-08 23:49:00,39.0,28.6,30.14,ENE,75,29.0,34.0,66,0.00,,,0.00,Wunderground v.1.15,2013-03-09 04:49:00,
2013-03-08 23:54:00,38.9,28.5,30.14,East,79,24.0,32.0,66,0.00,,,0.00,Wunderground v.1.15,2013-03-09 04:54:00,
2013-03-08 23:59:00,38.9,28.5,30.14,ENE,78,29.0,32.0,66,0.00,,,0.00,Wunderground v.1.15,2013-03-09 04:59:00,